Time;durP1;ratioP1;P1;durP2;ratioP2;P2;SDS_P1;SDS_P2;PMS_P1;PMS_P2;Temp;Humidity;BMP_temperature;BMP_pressure;BME280_temperature;BME280_humidity;BME280_pressure;Samples;Min_cycle;Max_cycle;Signal;HPM_P1;HPM_P2
2021/10/22 08:15:45;;;;;;;4.43;2.03;;;8.80;99.90;;;;;;6203964;23;20446;-94
2021/10/22 08:21:06;;;;;;;7.90;1.87;;;8.90;99.90;;;;;;6206622;23;20719;-94
2021/10/22 08:23:32;;;;;;;4.67;1.67;;;9.10;99.90;;;;;;6204263;23;20437;-94
2021/10/22 08:25:58;;;;;;;6.07;1.80;;;9.00;99.90;;;;;;6204653;23;20421;-93
2021/10/22 08:28:30;;;;;;;9.00;1.90;;;8.90;99.90;;;;;;6209576;23;20403;-93
2021/10/22 08:30:59;;;;;;;9.03;2.40;;;9.20;99.90;;;;;;6186255;23;20175;-94
2021/10/22 08:33:26;;;;;;;6.70;2.30;;;9.30;99.90;;;;;;6206932;23;20486;-94
2021/10/22 08:35:54;;;;;;;5.90;2.17;;;9.40;99.90;;;;;;6209580;23;20866;-93
2021/10/22 08:38:20;;;;;;;4.20;1.80;;;9.50;99.90;;;;;;6208791;23;20567;-94
2021/10/22 08:40:46;;;;;;;6.50;1.60;;;9.40;99.90;;;;;;6209528;23;20426;-94
2021/10/22 08:43:44;;;;;;;7.23;2.17;;;9.30;99.90;;;;;;6224938;23;20403;-96
2021/10/22 08:46:12;;;;;;;7.60;1.90;;;9.20;99.90;;;;;;6229695;23;20417;-96
2021/10/22 08:48:55;;;;;;;6.33;2.60;;;9.30;99.90;;;;;;6225362;23;20866;-96
2021/10/22 08:51:21;;;;;;;8.70;2.03;;;9.50;99.90;;;;;;6222980;23;20430;-88
2021/10/22 08:53:57;;;;;;;6.97;1.50;;;9.50;99.90;;;;;;6211164;23;20423;-91
2021/10/22 08:56:23;;;;;;;3.97;1.60;;;9.80;99.90;;;;;;6227909;23;20242;-92
2021/10/22 08:58:51;;;;;;;7.60;1.57;;;9.70;99.90;;;;;;6209756;23;21341;-92
2021/10/22 09:01:18;;;;;;;7.33;2.00;;;9.70;99.90;;;;;;6206903;23;20169;-88
2021/10/22 09:03:43;;;;;;;9.53;1.87;;;9.80;99.90;;;;;;6207000;23;20438;-91
2021/10/22 09:06:14;;;;;;;4.47;1.80;;;9.70;99.90;;;;;;6208291;23;20973;-90
2021/10/22 09:08:44;;;;;;;10.23;1.40;;;9.70;99.90;;;;;;6207482;23;20167;-91
2021/10/22 09:11:32;;;;;;;6.63;2.07;;;9.80;99.90;;;;;;6209261;23;20842;-93
2021/10/22 09:14:02;;;;;;;4.90;1.73;;;9.80;99.90;;;;;;6207653;23;20950;-92
2021/10/22 09:16:31;;;;;;;4.40;1.77;;;10.10;99.90;;;;;;6207205;23;20415;-91
2021/10/22 09:18:59;;;;;;;7.40;1.67;;;10.30;99.30;;;;;;6208873;23;20433;-89
2021/10/22 09:21:31;;;;;;;7.13;1.10;;;10.20;99.80;;;;;;6207650;23;20722;-91
2021/10/22 09:24:23;;;;;;;7.10;1.50;;;10.10;97.60;;;;;;6206241;23;20430;-92
2021/10/22 09:26:59;;;;;;;6.43;1.73;;;10.40;98.70;;;;;;6204237;23;20413;-91
2021/10/22 09:29:27;;;;;;;7.10;1.60;;;10.20;99.00;;;;;;6200528;23;20406;-90
2021/10/22 09:31:56;;;;;;;5.57;1.83;;;10.30;99.00;;;;;;6204090;23;20379;-93
2021/10/22 09:34:33;;;;;;;6.70;1.70;;;10.20;98.20;;;;;;6204091;23;20401;-93
2021/10/22 09:37:01;;;;;;;2.93;1.20;;;10.10;97.70;;;;;;6205652;23;20876;-91
2021/10/22 09:39:33;;;;;;;8.03;1.50;;;10.10;98.20;;;;;;6206186;23;20387;-92
2021/10/22 09:42:00;;;;;;;3.20;1.33;;;10.30;98.60;;;;;;6205504;23;20397;-91
2021/10/22 09:44:31;;;;;;;3.43;1.20;;;10.20;97.70;;;;;;6202499;23;20449;-92
2021/10/22 09:47:07;;;;;;;4.77;1.70;;;10.40;98.40;;;;;;6202882;23;20398;-92
2021/10/22 09:49:52;;;;;;;5.17;1.43;;;10.80;97.40;;;;;;6203410;23;20891;-92
2021/10/22 09:52:28;;;;;;;2.97;1.13;;;10.60;97.00;;;;;;6208171;23;20540;-92
2021/10/22 09:55:17;;;;;;;1.20;0.90;;;10.50;96.70;;;;;;6207735;23;20494;-93
2021/10/22 09:57:45;;;;;;;3.90;1.33;;;10.40;96.30;;;;;;6205143;23;20436;-92
2021/10/22 10:00:20;;;;;;;4.17;1.20;;;10.20;96.70;;;;;;6205595;23;20722;-93
2021/10/22 10:02:46;;;;;;;3.70;1.23;;;10.70;96.80;;;;;;6205439;23;20394;-93
2021/10/22 10:05:12;;;;;;;6.70;1.40;;;11.00;96.80;;;;;;6203840;23;20481;-92
2021/10/22 10:07:44;;;;;;;2.13;1.10;;;11.10;95.40;;;;;;6205459;23;20394;-92
2021/10/22 10:10:14;;;;;;;2.80;1.23;;;10.90;95.80;;;;;;6205404;23;20379;-92
2021/10/22 10:12:44;;;;;;;3.80;1.57;;;10.70;96.20;;;;;;6204681;23;20399;-91
2021/10/22 10:15:16;;;;;;;4.73;1.77;;;10.80;96.60;;;;;;6204466;23;20959;-92
2021/10/22 10:17:46;;;;;;;6.13;1.70;;;11.00;96.90;;;;;;6205449;23;20441;-91
2021/10/22 10:20:18;;;;;;;3.33;1.63;;;11.40;95.30;;;;;;6203124;23;20733;-92
2021/10/22 11:30:37;;;;;;;1.90;0.80;;;12.50;76.70;;;;;;6208864;23;20447;-91
2021/10/22 11:33:03;;;;;;;2.50;0.93;;;12.70;78.50;;;;;;6179750;23;20788;-92
2021/10/22 11:35:31;;;;;;;2.60;0.60;;;13.30;78.10;;;;;;6178091;23;20493;-91
2021/10/22 11:38:04;;;;;;;0.37;0.37;;;13.20;76.70;;;;;;6180040;23;20787;-92
2021/10/22 11:40:33;;;;;;;3.37;0.57;;;13.20;76.60;;;;;;6180140;23;21278;-92
2021/10/22 11:43:08;;;;;;;4.70;1.73;;;13.50;74.50;;;;;;6206184;23;20394;-93
2021/10/22 11:45:34;;;;;;;3.50;1.27;;;12.90;75.40;;;;;;6178324;23;20514;-93
2021/10/22 11:48:11;;;;;;;2.80;1.00;;;12.90;74.30;;;;;;6205839;23;20386;-92
2021/10/22 11:50:37;;;;;;;3.40;1.03;;;12.80;76.90;;;;;;6176085;23;20421;-91
2021/10/22 11:53:10;;;;;;;3.00;0.80;;;13.10;74.00;;;;;;6179687;23;20407;-92
2021/10/22 11:55:36;;;;;;;3.47;1.03;;;13.20;73.90;;;;;;6199351;23;20472;-90
2021/10/22 11:58:05;;;;;;;1.23;0.63;;;13.70;75.40;;;;;;6190096;23;20399;-92
2021/10/22 12:00:32;;;;;;;1.90;0.77;;;13.70;72.30;;;;;;6207857;23;20429;-91
2021/10/22 12:02:58;;;;;;;2.20;0.90;;;13.80;73.30;;;;;;6176813;23;20533;-92
2021/10/22 12:05:26;;;;;;;2.93;0.73;;;13.90;71.90;;;;;;6177917;23;20473;-94
2021/10/22 12:07:55;;;;;;;5.43;1.10;;;14.40;71.10;;;;;;6179277;23;20869;-94
2021/10/22 12:10:22;;;;;;;2.47;1.47;;;14.40;67.20;;;;;;6180949;23;20965;-91
2021/10/22 12:12:51;;;;;;;2.40;1.40;;;14.60;67.00;;;;;;6179232;23;20694;-92
2021/10/22 12:15:31;;;;;;;2.80;1.00;;;14.70;66.80;;;;;;6177738;23;20407;-92
2021/10/22 12:18:04;;;;;;;2.47;1.20;;;15.90;64.00;;;;;;6178477;23;20398;-91
2021/10/22 12:20:31;;;;;;;1.93;0.90;;;16.80;62.20;;;;;;6180582;23;20393;-89
2021/10/22 12:22:59;;;;;;;1.60;1.00;;;16.70;62.00;;;;;;6175261;23;20402;-88
2021/10/22 12:25:30;;;;;;;3.57;1.03;;;16.90;60.90;;;;;;6175944;23;20446;-88
2021/10/22 12:28:01;;;;;;;3.73;1.07;;;17.70;60.60;;;;;;6207729;23;20391;-89
2021/10/22 12:30:37;;;;;;;3.13;1.13;;;18.60;56.60;;;;;;6201887;23;20478;-93
2021/10/22 12:33:03;;;;;;;2.10;0.73;;;17.40;55.40;;;;;;6186469;23;20457;-94
2021/10/22 12:35:46;;;;;;;2.40;0.93;;;18.10;55.20;;;;;;6209436;23;20402;-94
2021/10/22 12:38:18;;;;;;;4.43;1.03;;;18.60;55.20;;;;;;6209821;23;20171;-94
2021/10/22 12:40:53;;;;;;;1.67;0.90;;;17.30;53.20;;;;;;6210027;23;20713;-93
2021/10/22 12:43:23;;;;;;;1.40;0.80;;;16.80;54.30;;;;;;6211872;23;20448;-96
2021/10/22 12:46:21;;;;;;;3.53;0.90;;;16.80;54.30;;;;;;6216796;23;20391;-94
2021/10/22 12:48:51;;;;;;;1.70;0.73;;;16.50;53.20;;;;;;6213054;23;20460;-95
2021/10/22 12:51:23;;;;;;;2.03;1.10;;;16.80;53.50;;;;;;6210542;23;20738;-94
2021/10/22 12:53:58;;;;;;;1.60;1.20;;;17.10;53.80;;;;;;6217131;23;20394;-96
2021/10/22 12:56:28;;;;;;;1.90;0.80;;;15.80;53.60;;;;;;6218816;23;20465;-95
2021/10/22 13:15:17;;;;;;;3.10;1.10;;;13.40;60.00;;;;;;6219828;23;20893;-90
2021/10/22 13:20:39;;;;;;;2.93;1.00;;;13.20;63.20;;;;;;6224534;23;20466;-95
2021/10/22 13:23:14;;;;;;;2.27;1.17;;;13.20;63.40;;;;;;6204158;23;20390;-95
2021/10/22 13:25:42;;;;;;;2.60;0.70;;;13.00;62.70;;;;;;6210369;23;20421;-94
2021/10/22 13:28:18;;;;;;;3.03;0.70;;;13.10;65.40;;;;;;6204900;23;20401;-96
2021/10/22 13:31:12;;;;;;;2.23;0.80;;;13.40;65.10;;;;;;6192279;23;20402;-95
2021/10/22 13:33:42;;;;;;;2.50;1.10;;;13.30;63.30;;;;;;6205422;23;20403;-96
2021/10/22 13:36:17;;;;;;;1.77;0.90;;;13.30;63.90;;;;;;6201392;23;20403;-94
2021/10/22 15:13:20;;;;;;;2.57;1.00;;;11.30;75.80;;;;;;6206035;22;20461;-93
2021/10/22 16:28:05;;;;;;;1.63;1.03;;;9.30;92.10;;;;;;6251721;22;20440;-94
2021/10/22 16:30:33;;;;;;;4.00;1.80;;;9.10;92.50;;;;;;6220696;23;20406;-93
2021/10/22 16:35:41;;;;;;;2.40;1.07;;;9.10;92.80;;;;;;6217128;23;20727;-94
2021/10/22 16:36:00;;;;;;;3.27;1.60;;;9.10;93.20;;;;;;6240526;23;20385;-95
2021/10/22 16:38:34;;;;;;;4.97;1.50;;;9.00;93.50;;;;;;6212734;23;20425;-93
2021/10/22 16:41:00;;;;;;;3.33;1.20;;;9.00;93.80;;;;;;6211556;23;20451;-94
2021/10/22 16:43:25;;;;;;;3.17;1.30;;;8.80;94.00;;;;;;6211220;23;20495;-93
2021/10/22 16:45:51;;;;;;;2.07;1.40;;;8.70;94.40;;;;;;6213022;23;20668;-94
2021/10/22 16:51:03;;;;;;;1.83;1.40;;;8.70;94.90;;;;;;6243994;23;20480;-93
2021/10/22 16:53:30;;;;;;;6.47;2.17;;;8.70;95.10;;;;;;6219172;23;20445;-94
2021/10/22 16:55:56;;;;;;;6.50;2.20;;;8.70;95.20;;;;;;6214615;23;20165;-93
2021/10/22 16:58:22;;;;;;;5.33;1.80;;;8.60;95.40;;;;;;6210722;23;20957;-94
2021/10/22 17:00:48;;;;;;;4.47;1.60;;;8.60;95.90;;;;;;6213297;23;20300;-94
2021/10/22 17:03:13;;;;;;;4.27;1.57;;;8.50;96.00;;;;;;6211438;23;20517;-93
2021/10/22 17:05:48;;;;;;;5.33;1.70;;;8.50;96.20;;;;;;6237368;23;20258;-93
2021/10/22 17:08:25;;;;;;;6.60;2.07;;;8.50;96.10;;;;;;6211306;23;20393;-94
2021/10/22 17:10:51;;;;;;;3.57;1.60;;;8.50;96.40;;;;;;6210795;23;20722;-92
2021/10/22 17:13:16;;;;;;;5.83;1.97;;;8.50;96.60;;;;;;6210694;23;20162;-93
2021/10/22 17:15:43;;;;;;;4.20;1.90;;;8.50;96.90;;;;;;6186797;23;20203;-94
2021/10/22 17:18:13;;;;;;;3.30;2.03;;;8.50;96.90;;;;;;6209493;23;20269;-93
2021/10/22 17:20:48;;;;;;;4.73;2.70;;;8.50;97.10;;;;;;6212900;23;20440;-94
2021/10/22 17:23:13;;;;;;;2.50;1.70;;;8.40;97.30;;;;;;6210368;23;20393;-92
2021/10/22 17:25:41;;;;;;;5.97;1.80;;;8.40;97.40;;;;;;6208431;23;20170;-93
2021/10/22 17:28:07;;;;;;;3.00;1.40;;;8.30;97.70;;;;;;6217827;23;20283;-92
2021/10/22 17:30:34;;;;;;;3.30;1.87;;;8.20;97.90;;;;;;6238483;23;20398;-93
2021/10/22 17:33:00;;;;;;;3.57;1.67;;;8.20;98.10;;;;;;6236788;23;20528;-93
2021/10/22 17:35:27;;;;;;;3.87;1.70;;;8.20;98.30;;;;;;6238115;23;20395;-94
2021/10/22 17:37:56;;;;;;;2.90;2.10;;;8.20;98.60;;;;;;6235575;23;20190;-94
2021/10/22 17:40:24;;;;;;;3.33;2.20;;;8.00;98.90;;;;;;6236158;23;20665;-94
2021/10/22 17:42:52;;;;;;;4.63;3.00;;;7.90;99.40;;;;;;6241712;23;20458;-94
2021/10/22 17:45:20;;;;;;;9.97;4.43;;;8.00;99.50;;;;;;6237503;23;20475;-95
2021/10/22 17:47:49;;;;;;;4.90;4.30;;;7.90;99.70;;;;;;6246527;23;20393;-95
2021/10/22 17:50:55;;;;;;;6.97;4.37;;;7.90;99.70;;;;;;6254965;22;20421;-96
2021/10/22 18:08:59;;;;;;;6.10;4.53;;;7.80;99.80;;;;;;6190680;23;20918;-92
2021/10/22 18:11:31;;;;;;;5.13;4.00;;;7.90;99.90;;;;;;6209118;23;20729;-90
2021/10/22 18:13:57;;;;;;;4.60;3.83;;;7.80;99.90;;;;;;6212041;23;20398;-93
2021/10/22 18:16:23;;;;;;;7.63;3.80;;;7.80;99.90;;;;;;6201283;23;20891;-90
2021/10/22 18:18:53;;;;;;;5.20;3.83;;;7.80;99.90;;;;;;6206938;23;20395;-91
2021/10/22 18:21:21;;;;;;;6.40;3.60;;;7.80;99.90;;;;;;6193394;23;20398;-94
2021/10/22 18:23:52;;;;;;;6.83;3.83;;;7.80;99.90;;;;;;6211202;23;20435;-93
2021/10/22 18:26:18;;;;;;;6.23;4.10;;;7.80;99.90;;;;;;6203817;23;20480;-94
2021/10/22 18:28:52;;;;;;;8.27;4.03;;;7.80;99.90;;;;;;6213062;23;20926;-95
2021/10/22 18:31:25;;;;;;;6.40;3.63;;;7.70;99.90;;;;;;6212537;23;20246;-95
2021/10/22 18:33:51;;;;;;;4.67;3.73;;;7.70;99.90;;;;;;6212826;23;20797;-94
2021/10/22 18:36:19;;;;;;;7.17;3.80;;;7.80;99.90;;;;;;6212656;23;20882;-95
2021/10/22 18:38:48;;;;;;;8.80;3.70;;;7.80;99.90;;;;;;6210502;23;20385;-96
2021/10/22 18:41:15;;;;;;;6.70;3.70;;;7.80;99.90;;;;;;6237094;23;20444;-95
2021/10/22 18:43:43;;;;;;;10.77;6.57;;;7.90;99.90;;;;;;6213401;23;20420;-95
2021/10/22 18:46:10;;;;;;;5.70;4.00;;;7.90;99.90;;;;;;6211772;23;20445;-95
2021/10/22 18:48:37;;;;;;;3.20;2.90;;;8.00;99.90;;;;;;6219890;23;20386;-96
2021/10/22 18:51:04;;;;;;;5.50;2.37;;;8.00;99.90;;;;;;6242345;23;20396;-93
2021/10/22 18:53:30;;;;;;;5.47;2.50;;;8.00;99.90;;;;;;6212034;23;20475;-94
2021/10/22 18:55:56;;;;;;;2.80;2.00;;;8.00;99.90;;;;;;6203373;23;20174;-93
2021/10/22 18:58:22;;;;;;;2.30;1.90;;;8.10;99.90;;;;;;6205275;23;20381;-92
2021/10/22 19:00:49;;;;;;;3.75;2.10;;;8.10;99.90;;;;;;6200834;23;20395;-93
2021/10/22 19:03:22;;;;;;;1.93;1.50;;;8.10;99.90;;;;;;6200975;23;20498;-90
2021/10/22 19:05:53;;;;;;;5.73;2.40;;;8.10;99.90;;;;;;6200742;23;20446;-89
2021/10/22 19:08:19;;;;;;;2.07;1.97;;;8.20;99.90;;;;;;6200529;23;20865;-90
2021/10/22 19:10:45;;;;;;;3.03;2.70;;;8.10;99.90;;;;;;6196122;23;20585;-85
2021/10/22 19:13:11;;;;;;;3.13;2.60;;;8.10;99.90;;;;;;6202885;23;20436;-88
2021/10/22 19:15:38;;;;;;;3.93;2.20;;;8.10;99.90;;;;;;6204036;23;20415;-90
2021/10/22 19:18:05;;;;;;;4.57;2.60;;;8.10;99.90;;;;;;6201700;23;20432;-89
2021/10/22 19:20:31;;;;;;;3.43;2.27;;;8.00;99.90;;;;;;6203630;23;20400;-89
2021/10/22 19:22:58;;;;;;;3.93;2.10;;;7.90;99.90;;;;;;6205872;23;20394;-90
2021/10/22 19:25:23;;;;;;;6.50;2.67;;;7.90;99.90;;;;;;6214741;23;20371;-90
2021/10/22 19:27:49;;;;;;;3.93;2.70;;;7.90;99.90;;;;;;6207301;23;20398;-89
2021/10/22 19:30:15;;;;;;;3.90;3.10;;;7.80;99.90;;;;;;6203589;23;21297;-89
2021/10/22 19:32:41;;;;;;;4.27;3.23;;;7.80;99.90;;;;;;6177508;23;20167;-90
2021/10/22 19:35:07;;;;;;;7.57;2.77;;;7.90;99.90;;;;;;6202157;23;20225;-89
2021/10/22 19:37:34;;;;;;;5.20;3.00;;;7.90;99.90;;;;;;6166122;23;20169;-87
2021/10/22 19:40:03;;;;;;;5.33;3.40;;;7.90;99.90;;;;;;6204240;23;20402;-89
2021/10/22 19:42:29;;;;;;;4.23;3.20;;;7.80;99.90;;;;;;6204853;23;20402;-89
2021/10/22 19:44:54;;;;;;;7.60;3.00;;;7.80;99.90;;;;;;6203983;23;20819;-89
2021/10/22 19:47:21;;;;;;;4.83;3.23;;;7.80;99.90;;;;;;6202820;23;20175;-90
2021/10/22 19:49:47;;;;;;;4.60;3.77;;;7.80;99.90;;;;;;6205547;23;20167;-92
2021/10/22 19:52:14;;;;;;;5.13;3.30;;;7.80;99.90;;;;;;6203126;23;20890;-89
2021/10/22 19:54:41;;;;;;;6.57;3.80;;;7.80;99.90;;;;;;6229103;23;20403;-90
2021/10/22 19:57:07;;;;;;;7.70;2.73;;;7.80;99.90;;;;;;6198118;23;20425;-89
2021/10/22 19:59:32;;;;;;;3.50;2.57;;;7.80;99.90;;;;;;6197040;23;20159;-88
2021/10/22 20:02:01;;;;;;;4.90;3.30;;;7.80;99.90;;;;;;6201801;23;20256;-90
2021/10/22 20:04:28;;;;;;;6.73;3.70;;;7.90;99.90;;;;;;6177509;23;20200;-88
2021/10/22 20:06:54;;;;;;;4.60;3.17;;;7.80;99.90;;;;;;6204846;23;20396;-88
2021/10/22 20:09:20;;;;;;;5.70;3.90;;;7.90;99.90;;;;;;6203142;23;20422;-88
